createdAt,value
2018-10-09T00:01:55.500Z,8.20
2018-10-09T00:04:24.008Z,8.10
2018-10-09T00:06:52.466Z,8.10
2018-10-09T00:09:20.914Z,8.10
2018-10-09T00:11:49.379Z,8.10
2018-10-09T00:14:18.814Z,8.00
2018-10-09T00:16:47.262Z,8.00
2018-10-09T00:19:22.224Z,8.00
2018-10-09T00:21:50.714Z,7.90
2018-10-09T00:24:19.203Z,7.90
2018-10-09T00:26:47.683Z,7.90
2018-10-09T00:29:16.121Z,8.00
2018-10-09T00:31:44.669Z,7.90
2018-10-09T00:34:13.130Z,7.90
2018-10-09T00:36:42.528Z,7.90
2018-10-09T00:39:11.551Z,7.90
2018-10-09T00:41:40.022Z,7.90
2018-10-09T00:44:08.670Z,7.90
2018-10-09T00:46:37.258Z,7.80
2018-10-09T00:49:06.166Z,7.80
2018-10-09T00:51:34.741Z,7.80
2018-10-09T00:54:03.217Z,7.80
2018-10-09T00:56:31.694Z,7.80
2018-10-09T00:59:00.169Z,7.80
2018-10-09T01:01:28.703Z,7.90
2018-10-09T01:03:57.153Z,7.80
2018-10-09T01:06:25.789Z,7.80
2018-10-09T01:08:54.268Z,7.70
2018-10-09T01:11:22.778Z,7.70
2018-10-09T01:13:51.220Z,7.70
2018-10-09T01:16:19.700Z,7.70
2018-10-09T01:18:48.176Z,7.70
2018-10-09T01:21:16.618Z,7.70
2018-10-09T01:23:45.075Z,7.70
2018-10-09T01:26:13.568Z,7.60
2018-10-09T01:28:42.030Z,7.60
2018-10-09T01:31:10.481Z,7.50
2018-10-09T01:33:38.918Z,7.50
2018-10-09T01:36:07.561Z,7.60
2018-10-09T01:38:36.011Z,7.60
2018-10-09T01:41:04.546Z,7.60
2018-10-09T01:43:33.017Z,7.60
2018-10-09T01:46:01.489Z,7.60
2018-10-09T01:48:29.931Z,7.60
2018-10-09T01:50:58.426Z,7.60
2018-10-09T01:53:27.046Z,7.60
2018-10-09T01:55:55.491Z,7.50
2018-10-09T01:58:23.960Z,7.60
2018-10-09T02:00:52.889Z,7.50
2018-10-09T02:03:21.345Z,7.50
2018-10-09T02:05:49.815Z,7.40
2018-10-09T02:08:19.054Z,7.40
2018-10-09T02:10:47.481Z,7.50
2018-10-09T02:13:15.928Z,7.50
2018-10-09T02:15:44.370Z,7.40
2018-10-09T02:18:12.827Z,7.50
2018-10-09T02:20:41.369Z,7.50
2018-10-09T02:23:09.808Z,7.40
2018-10-09T02:25:38.270Z,7.20
2018-10-09T02:28:06.710Z,7.20
2018-10-09T02:30:35.247Z,7.20
2018-10-09T02:33:03.749Z,7.20
2018-10-09T02:35:32.199Z,7.20
2018-10-09T02:38:00.658Z,7.30
2018-10-09T02:40:29.131Z,7.30
2018-10-09T02:42:57.621Z,7.40
2018-10-09T02:45:26.097Z,7.40
2018-10-09T02:47:54.576Z,7.40
2018-10-09T02:50:23.088Z,7.30
2018-10-09T02:52:51.606Z,7.20
2018-10-09T02:55:20.089Z,7.20
2018-10-09T02:57:48.914Z,7.20
2018-10-09T03:00:17.371Z,7.20
2018-10-09T03:02:45.869Z,7.20
2018-10-09T03:05:14.472Z,7.20
2018-10-09T03:07:43.338Z,7.10
2018-10-09T03:10:11.797Z,7.00
2018-10-09T03:12:40.225Z,7.10
2018-10-09T03:15:08.755Z,7.10
2018-10-09T03:17:37.193Z,7.10
2018-10-09T03:20:05.732Z,7.10
2018-10-09T03:22:34.168Z,7.10
2018-10-09T03:25:02.630Z,7.10
2018-10-09T03:27:31.541Z,7.10
2018-10-09T03:29:59.984Z,7.10
2018-10-09T03:32:28.428Z,7.00
2018-10-09T03:34:57.031Z,7.00
2018-10-09T03:37:25.503Z,7.00
2018-10-09T03:39:53.953Z,7.00
2018-10-09T03:42:22.396Z,7.00
2018-10-09T03:44:50.910Z,6.90
2018-10-09T03:47:19.379Z,6.90
2018-10-09T03:49:47.856Z,6.80
2018-10-09T03:52:16.998Z,6.90
2018-10-09T03:54:45.499Z,6.90
2018-10-09T03:57:14.175Z,6.90
2018-10-09T03:59:42.640Z,6.90
2018-10-09T04:02:11.459Z,6.90
2018-10-09T04:04:39.906Z,6.80
2018-10-09T04:07:08.625Z,6.80
2018-10-09T04:09:37.092Z,6.80
2018-10-09T04:12:05.555Z,6.80
2018-10-09T04:14:33.996Z,6.80
2018-10-09T04:17:02.484Z,6.70
2018-10-09T04:19:31.035Z,6.70
2018-10-09T04:21:59.447Z,6.70
2018-10-09T04:24:27.977Z,6.70
2018-10-09T04:26:56.456Z,6.80
2018-10-09T04:29:24.926Z,6.70
2018-10-09T04:31:53.427Z,6.80
2018-10-09T04:34:21.927Z,6.70
2018-10-09T04:36:50.382Z,6.70
2018-10-09T04:39:18.848Z,6.70
2018-10-09T04:41:47.518Z,6.70
2018-10-09T04:44:16.003Z,6.80
2018-10-09T04:46:44.499Z,6.70
2018-10-09T04:49:13.013Z,6.70
2018-10-09T04:51:42.380Z,6.70
2018-10-09T04:54:10.808Z,6.70
2018-10-09T04:56:39.278Z,6.80
2018-10-09T04:59:07.764Z,6.80
2018-10-09T05:01:38.378Z,6.70
2018-10-09T05:04:06.880Z,6.70
2018-10-09T05:06:35.557Z,6.70
2018-10-09T05:09:05.910Z,6.70
2018-10-09T05:11:34.376Z,6.70
2018-10-09T05:14:03.030Z,6.70
2018-10-09T05:16:31.474Z,6.70
2018-10-09T05:18:59.981Z,6.70
2018-10-09T05:21:28.450Z,6.70
2018-10-09T05:23:56.931Z,6.70
2018-10-09T05:26:25.571Z,6.80
2018-10-09T05:28:54.437Z,6.80
2018-10-09T05:31:23.042Z,6.80
2018-10-09T05:33:51.432Z,6.80
2018-10-09T05:36:20.186Z,6.80
2018-10-09T05:38:49.033Z,6.80
2018-10-09T05:41:17.519Z,6.80
2018-10-09T05:43:46.004Z,6.70
2018-10-09T05:46:15.313Z,6.70
2018-10-09T05:48:43.752Z,6.70
2018-10-09T05:51:12.228Z,6.70
2018-10-09T05:53:40.729Z,6.60
2018-10-09T05:56:09.230Z,6.60
2018-10-09T05:58:37.696Z,6.70
2018-10-09T06:01:06.776Z,6.70
2018-10-09T06:03:35.273Z,6.70
2018-10-09T06:06:03.883Z,6.70
2018-10-09T06:08:32.241Z,6.80
2018-10-09T06:11:00.716Z,6.80
2018-10-09T06:13:29.413Z,6.90
2018-10-09T06:15:57.950Z,6.90
2018-10-09T06:18:26.369Z,6.90
2018-10-09T06:20:54.824Z,7.00
2018-10-09T06:23:23.322Z,7.00
2018-10-09T06:25:51.802Z,7.00
2018-10-09T06:28:20.291Z,7.10
2018-10-09T06:30:48.760Z,7.10
2018-10-09T06:33:17.191Z,7.10
2018-10-09T06:35:45.644Z,7.30
2018-10-09T06:38:14.139Z,7.40
2018-10-09T06:40:42.708Z,7.40
2018-10-09T06:43:11.136Z,7.60
2018-10-09T06:45:39.614Z,7.70
2018-10-09T06:48:08.100Z,7.70
2018-10-09T06:50:37.044Z,7.80
2018-10-09T06:53:05.528Z,7.90
2018-10-09T06:55:34.145Z,7.90
2018-10-09T06:58:02.605Z,8.00
2018-10-09T07:00:31.063Z,8.00
2018-10-09T07:02:59.639Z,8.10
2018-10-09T07:05:28.102Z,8.20
2018-10-09T07:07:56.628Z,8.30
2018-10-09T07:10:25.123Z,8.40
2018-10-09T07:12:53.832Z,8.40
2018-10-09T07:15:22.293Z,8.50
2018-10-09T07:17:50.808Z,8.60
2018-10-09T07:20:19.288Z,8.70
2018-10-09T07:22:47.787Z,8.80
2018-10-09T07:25:17.113Z,8.90
2018-10-09T07:27:45.609Z,9.00
2018-10-09T07:30:14.045Z,9.10
2018-10-09T07:32:42.506Z,9.10
2018-10-09T07:35:11.481Z,9.10
2018-10-09T07:37:40.364Z,9.20
2018-10-09T07:40:08.903Z,9.20
2018-10-09T07:42:37.375Z,9.20
2018-10-09T07:45:05.873Z,9.30
2018-10-09T07:47:34.354Z,9.40
2018-10-09T07:50:02.933Z,9.40
2018-10-09T07:52:31.409Z,9.50
2018-10-09T07:54:59.872Z,9.70
2018-10-09T07:57:28.375Z,9.80
2018-10-09T07:59:56.873Z,10.00
2018-10-09T08:02:25.349Z,10.10
2018-10-09T08:04:53.923Z,10.30
2018-10-09T08:07:22.390Z,10.40
2018-10-09T08:09:50.854Z,10.60
2018-10-09T08:12:19.360Z,10.80
2018-10-09T08:14:47.857Z,10.90
2018-10-09T08:17:16.358Z,11.10
2018-10-09T08:19:44.856Z,11.30
2018-10-09T08:22:13.330Z,11.40
2018-10-09T08:24:41.822Z,11.50
2018-10-09T08:27:10.315Z,11.70
2018-10-09T08:29:38.882Z,11.70
2018-10-09T08:32:07.437Z,11.80
2018-10-09T08:34:36.053Z,11.90
2018-10-09T08:37:04.441Z,12.00
2018-10-09T08:39:32.931Z,12.10
2018-10-09T08:42:01.600Z,12.10
2018-10-09T08:44:30.111Z,12.30
2018-10-09T08:46:58.696Z,12.40
2018-10-09T08:49:28.284Z,12.40
2018-10-09T08:51:56.802Z,12.40
2018-10-09T08:54:25.370Z,12.40
2018-10-09T08:56:53.944Z,12.40
2018-10-09T08:59:22.479Z,12.40
2018-10-09T09:01:50.961Z,12.50
2018-10-09T09:04:19.451Z,12.70
2018-10-09T09:06:47.908Z,12.80
2018-10-09T09:09:16.443Z,12.90
2018-10-09T09:11:45.091Z,13.10
2018-10-09T09:14:13.677Z,13.30
2018-10-09T09:16:42.135Z,13.50
2018-10-09T09:19:10.628Z,13.50
2018-10-09T09:21:39.134Z,13.70
2018-10-09T09:24:07.641Z,14.00
2018-10-09T09:26:36.160Z,14.10
2018-10-09T09:29:04.639Z,14.30
2018-10-09T09:31:33.114Z,14.40
2018-10-09T09:34:01.610Z,14.60
2018-10-09T09:36:31.286Z,14.70
2018-10-09T09:38:59.778Z,14.80
2018-10-09T09:41:28.304Z,14.90
2018-10-09T09:43:56.808Z,15.00
2018-10-09T09:46:25.735Z,15.20
2018-10-09T09:48:54.285Z,15.20
2018-10-09T09:51:22.756Z,15.30
2018-10-09T09:53:51.328Z,15.40
2018-10-09T09:56:19.807Z,15.50
2018-10-09T09:58:48.427Z,15.70
2018-10-09T10:01:17.789Z,15.80
2018-10-09T10:03:46.744Z,15.90
2018-10-09T10:06:15.167Z,15.90
2018-10-09T10:08:43.647Z,16.00
2018-10-09T10:11:12.151Z,16.00
2018-10-09T10:13:40.622Z,16.10
2018-10-09T10:16:09.732Z,16.20
2018-10-09T10:18:38.901Z,16.30
2018-10-09T10:21:08.390Z,16.40
2018-10-09T10:23:36.920Z,16.50
2018-10-09T10:26:05.465Z,16.60
2018-10-09T10:28:34.096Z,16.70
2018-10-09T10:31:02.628Z,16.70
2018-10-09T10:33:31.107Z,16.80
2018-10-09T10:35:59.611Z,16.90
2018-10-09T10:38:28.093Z,16.90
2018-10-09T10:40:56.693Z,17.00
2018-10-09T10:43:25.183Z,16.90
2018-10-09T10:45:54.233Z,17.00
2018-10-09T10:48:22.892Z,17.00
2018-10-09T10:50:51.660Z,17.10
2018-10-09T10:53:20.166Z,17.10
2018-10-09T10:55:48.658Z,17.10
2018-10-09T10:58:17.179Z,17.20
2018-10-09T11:00:45.713Z,17.20
2018-10-09T11:03:14.299Z,17.30
2018-10-09T11:05:42.848Z,17.30
2018-10-09T11:08:11.367Z,17.30
2018-10-09T11:10:39.797Z,17.40
2018-10-09T11:13:08.319Z,17.50
2018-10-09T11:15:37.669Z,17.60
2018-10-09T11:18:06.395Z,17.70
2018-10-09T11:20:35.218Z,17.80
2018-10-09T11:23:03.722Z,17.80
2018-10-09T11:25:32.208Z,17.80
2018-10-09T11:28:02.346Z,17.90
2018-10-09T11:30:30.837Z,18.00
2018-10-09T11:32:59.821Z,18.10
2018-10-09T11:35:29.581Z,18.20
2018-10-09T11:37:58.072Z,18.20
2018-10-09T11:40:26.538Z,18.30
2018-10-09T11:42:55.193Z,18.40
2018-10-09T11:45:24.530Z,18.50
2018-10-09T11:47:53.124Z,18.60
2018-10-09T11:50:21.747Z,18.70
2018-10-09T11:52:51.190Z,18.70
2018-10-09T11:55:19.978Z,18.90
2018-10-09T11:57:48.563Z,19.00
2018-10-09T12:00:17.030Z,19.10
2018-10-09T12:02:45.560Z,19.20
2018-10-09T12:05:14.130Z,19.20
2018-10-09T12:07:42.708Z,19.30
2018-10-09T12:10:11.281Z,19.40
2018-10-09T12:12:40.434Z,19.60
2018-10-09T12:15:09.187Z,19.60
2018-10-09T12:17:37.949Z,19.80
2018-10-09T12:20:06.942Z,19.80
2018-10-09T12:22:35.420Z,19.90
2018-10-09T12:25:04.008Z,19.90
2018-10-09T12:27:33.316Z,20.00
2018-10-09T12:30:01.825Z,20.10
2018-10-09T12:32:31.378Z,20.20
2018-10-09T12:35:00.665Z,20.30
2018-10-09T12:37:29.117Z,20.40
2018-10-09T12:39:57.635Z,20.30
2018-10-09T12:42:26.193Z,20.40
2018-10-09T12:44:54.670Z,20.30
2018-10-09T12:47:23.141Z,20.30
2018-10-09T12:49:51.799Z,20.30
2018-10-09T12:52:20.541Z,20.20
2018-10-09T12:54:49.533Z,20.20
2018-10-09T12:57:18.472Z,20.20
2018-10-09T12:59:46.937Z,20.10
2018-10-09T13:02:16.346Z,20.00
2018-10-09T13:04:45.394Z,19.90
2018-10-09T13:07:14.291Z,19.80
2018-10-09T13:09:43.024Z,19.70
2018-10-09T13:12:11.670Z,19.80
2018-10-09T13:14:41.115Z,19.70
2018-10-09T13:17:09.722Z,19.70
2018-10-09T13:19:38.171Z,19.70
2018-10-09T13:22:07.983Z,19.80
2018-10-09T13:24:36.248Z,19.80
2018-10-09T13:27:04.875Z,19.80
2018-10-09T13:29:33.449Z,19.90
2018-10-09T13:32:02.238Z,19.80
2018-10-09T13:34:30.792Z,19.80
2018-10-09T13:36:59.253Z,19.80
2018-10-09T13:39:27.862Z,19.90
2018-10-09T13:42:29.363Z,19.90
2018-10-09T13:44:57.910Z,19.80
2018-10-09T13:47:26.523Z,19.80
2018-10-09T13:49:55.002Z,19.80
2018-10-09T13:52:23.540Z,19.80
2018-10-09T13:54:52.150Z,19.60
2018-10-09T13:57:20.689Z,19.50
2018-10-09T13:59:49.225Z,19.40
2018-10-09T14:02:17.792Z,19.40
2018-10-09T14:04:46.293Z,19.40
2018-10-09T14:07:14.794Z,19.50
2018-10-09T14:09:43.342Z,19.50
2018-10-09T14:12:11.881Z,19.50
2018-10-09T14:14:40.392Z,19.60
2018-10-09T14:17:08.851Z,19.50
2018-10-09T14:19:37.418Z,19.50
2018-10-09T14:22:05.932Z,19.50
2018-10-09T14:24:34.428Z,19.50
2018-10-09T14:27:02.946Z,19.50
2018-10-09T14:29:31.409Z,19.40
2018-10-09T14:31:59.911Z,19.40
2018-10-09T14:34:28.425Z,19.30
2018-10-09T14:36:56.942Z,19.40
2018-10-09T14:39:25.429Z,19.40
2018-10-09T14:41:53.922Z,19.40
2018-10-09T14:44:23.230Z,19.40
2018-10-09T14:46:51.712Z,19.50
2018-10-09T14:49:20.548Z,19.50
2018-10-09T14:51:49.049Z,19.60
2018-10-09T14:54:17.573Z,19.70
2018-10-09T14:56:46.146Z,19.70
2018-10-09T14:59:14.838Z,19.80
2018-10-09T15:01:43.493Z,19.80
2018-10-09T15:04:11.982Z,19.80
2018-10-09T15:06:40.507Z,19.80
2018-10-09T15:09:11.472Z,19.90
2018-10-09T15:11:40.041Z,19.90
2018-10-09T15:14:08.739Z,19.90
2018-10-09T15:16:37.574Z,19.80
2018-10-09T15:19:06.796Z,19.80
2018-10-09T15:21:36.389Z,19.80
2018-10-09T15:24:04.952Z,19.90
2018-10-09T15:26:33.464Z,19.90
2018-10-09T15:29:02.083Z,19.90
2018-10-09T15:31:30.595Z,19.90
2018-10-09T15:33:59.240Z,19.90
2018-10-09T15:36:27.911Z,19.90
2018-10-09T15:38:56.578Z,19.90
2018-10-09T15:41:25.147Z,20.00
2018-10-09T15:43:53.682Z,20.00
2018-10-09T15:46:22.169Z,20.10
2018-10-09T15:48:50.725Z,20.10
2018-10-09T15:51:19.176Z,19.90
2018-10-09T15:53:47.673Z,19.90
2018-10-09T15:56:17.074Z,19.90
2018-10-09T15:58:45.555Z,19.90
2018-10-09T16:01:14.141Z,19.90
2018-10-09T16:03:42.587Z,19.90
2018-10-09T16:06:11.117Z,19.90
2018-10-09T16:08:39.583Z,19.90
2018-10-09T16:11:08.089Z,19.80
2018-10-09T16:13:36.583Z,19.80
2018-10-09T16:16:05.219Z,19.70
2018-10-09T16:18:33.803Z,19.60
2018-10-09T16:21:02.284Z,19.60
2018-10-09T16:23:31.442Z,19.50
2018-10-09T16:25:59.966Z,19.40
2018-10-09T16:28:28.807Z,19.30
2018-10-09T16:30:57.293Z,19.20
